sensor_id;sensor_type;location;lat;lon;timestamp;P1;durP1;ratioP1;P2;durP2;ratioP2
52786;SDS011;38661;53.152;5.846;2023-04-25T00:01:17;12.45;;;3.85;;
52786;SDS011;38661;53.152;5.846;2023-04-25T00:03:42;15.98;;;4.53;;
52786;SDS011;38661;53.152;5.846;2023-04-25T00:06:08;17.20;;;5.03;;
52786;SDS011;38661;53.152;5.846;2023-04-25T00:08:34;15.55;;;4.40;;
52786;SDS011;38661;53.152;5.846;2023-04-25T00:11:00;16.30;;;4.25;;
52786;SDS011;38661;53.152;5.846;2023-04-25T00:13:26;15.02;;;3.72;;
52786;SDS011;38661;53.152;5.846;2023-04-25T00:15:51;21.20;;;5.45;;
52786;SDS011;38661;53.152;5.846;2023-04-25T00:18:21;19.92;;;4.65;;
52786;SDS011;38661;53.152;5.846;2023-04-25T00:20:47;15.02;;;3.88;;
52786;SDS011;38661;53.152;5.846;2023-04-25T00:23:13;15.07;;;4.03;;
52786;SDS011;38661;53.152;5.846;2023-04-25T00:25:46;23.23;;;5.38;;
52786;SDS011;38661;53.152;5.846;2023-04-25T00:28:13;15.65;;;3.90;;
52786;SDS011;38661;53.152;5.846;2023-04-25T00:30:39;14.15;;;3.22;;
52786;SDS011;38661;53.152;5.846;2023-04-25T00:33:05;19.23;;;3.67;;
52786;SDS011;38661;53.152;5.846;2023-04-25T00:35:32;12.27;;;3.90;;
52786;SDS011;38661;53.152;5.846;2023-04-25T00:37:58;13.32;;;3.28;;
52786;SDS011;38661;53.152;5.846;2023-04-25T00:40:23;9.00;;;2.47;;
52786;SDS011;38661;53.152;5.846;2023-04-25T00:42:49;15.02;;;4.88;;
52786;SDS011;38661;53.152;5.846;2023-04-25T00:45:17;12.13;;;3.20;;
52786;SDS011;38661;53.152;5.846;2023-04-25T00:47:43;13.20;;;3.17;;
52786;SDS011;38661;53.152;5.846;2023-04-25T00:50:09;18.20;;;3.42;;
52786;SDS011;38661;53.152;5.846;2023-04-25T00:52:40;12.80;;;3.00;;
52786;SDS011;38661;53.152;5.846;2023-04-25T00:55:08;11.20;;;2.78;;
52786;SDS011;38661;53.152;5.846;2023-04-25T00:57:35;13.07;;;3.38;;
52786;SDS011;38661;53.152;5.846;2023-04-25T01:00:02;15.02;;;2.65;;
52786;SDS011;38661;53.152;5.846;2023-04-25T01:02:30;9.95;;;2.58;;
52786;SDS011;38661;53.152;5.846;2023-04-25T01:04:57;10.65;;;3.03;;
52786;SDS011;38661;53.152;5.846;2023-04-25T01:07:23;11.27;;;2.92;;
52786;SDS011;38661;53.152;5.846;2023-04-25T01:09:49;10.93;;;2.67;;
52786;SDS011;38661;53.152;5.846;2023-04-25T01:12:16;13.27;;;2.75;;
52786;SDS011;38661;53.152;5.846;2023-04-25T01:14:42;12.02;;;2.50;;
52786;SDS011;38661;53.152;5.846;2023-04-25T01:17:09;12.73;;;2.90;;
52786;SDS011;38661;53.152;5.846;2023-04-25T01:19:35;19.30;;;4.40;;
52786;SDS011;38661;53.152;5.846;2023-04-25T01:22:01;15.23;;;2.72;;
52786;SDS011;38661;53.152;5.846;2023-04-25T01:24:27;12.88;;;3.42;;
52786;SDS011;38661;53.152;5.846;2023-04-25T01:26:53;12.60;;;2.25;;
52786;SDS011;38661;53.152;5.846;2023-04-25T01:29:21;12.00;;;3.17;;
52786;SDS011;38661;53.152;5.846;2023-04-25T01:31:48;14.00;;;2.50;;
52786;SDS011;38661;53.152;5.846;2023-04-25T01:34:14;8.10;;;2.13;;
52786;SDS011;38661;53.152;5.846;2023-04-25T01:36:40;7.35;;;2.30;;
52786;SDS011;38661;53.152;5.846;2023-04-25T01:39:06;11.95;;;3.28;;
52786;SDS011;38661;53.152;5.846;2023-04-25T01:41:33;11.82;;;2.78;;
52786;SDS011;38661;53.152;5.846;2023-04-25T01:44:02;7.25;;;1.92;;
52786;SDS011;38661;53.152;5.846;2023-04-25T01:46:28;11.45;;;2.35;;
52786;SDS011;38661;53.152;5.846;2023-04-25T01:48:54;11.73;;;2.78;;
52786;SDS011;38661;53.152;5.846;2023-04-25T01:51:20;6.30;;;1.77;;
52786;SDS011;38661;53.152;5.846;2023-04-25T01:53:45;6.95;;;2.28;;
52786;SDS011;38661;53.152;5.846;2023-04-25T01:56:11;8.35;;;1.80;;
52786;SDS011;38661;53.152;5.846;2023-04-25T01:58:37;8.45;;;2.30;;
52786;SDS011;38661;53.152;5.846;2023-04-25T02:01:03;10.02;;;2.28;;
52786;SDS011;38661;53.152;5.846;2023-04-25T02:03:29;9.43;;;2.05;;
52786;SDS011;38661;53.152;5.846;2023-04-25T02:05:56;11.65;;;2.40;;
52786;SDS011;38661;53.152;5.846;2023-04-25T02:08:21;9.90;;;2.90;;
52786;SDS011;38661;53.152;5.846;2023-04-25T02:10:47;10.80;;;2.17;;
52786;SDS011;38661;53.152;5.846;2023-04-25T02:13:13;10.10;;;2.63;;
52786;SDS011;38661;53.152;5.846;2023-04-25T02:15:39;8.32;;;2.45;;
52786;SDS011;38661;53.152;5.846;2023-04-25T02:18:06;10.43;;;1.80;;
52786;SDS011;38661;53.152;5.846;2023-04-25T02:20:32;7.22;;;1.45;;
52786;SDS011;38661;53.152;5.846;2023-04-25T02:22:57;10.63;;;3.38;;
52786;SDS011;38661;53.152;5.846;2023-04-25T02:25:23;9.63;;;3.05;;
52786;SDS011;38661;53.152;5.846;2023-04-25T02:27:49;5.97;;;1.58;;
52786;SDS011;38661;53.152;5.846;2023-04-25T02:30:16;8.27;;;1.50;;
52786;SDS011;38661;53.152;5.846;2023-04-25T02:32:42;7.35;;;1.83;;
52786;SDS011;38661;53.152;5.846;2023-04-25T02:35:08;9.23;;;2.30;;
52786;SDS011;38661;53.152;5.846;2023-04-25T02:37:34;5.85;;;1.48;;
52786;SDS011;38661;53.152;5.846;2023-04-25T02:40:01;5.50;;;1.38;;
52786;SDS011;38661;53.152;5.846;2023-04-25T02:42:30;8.07;;;2.33;;
52786;SDS011;38661;53.152;5.846;2023-04-25T02:44:56;8.60;;;2.95;;
52786;SDS011;38661;53.152;5.846;2023-04-25T02:47:22;8.80;;;2.30;;
52786;SDS011;38661;53.152;5.846;2023-04-25T02:49:47;15.13;;;2.47;;
52786;SDS011;38661;53.152;5.846;2023-04-25T02:52:13;9.80;;;2.47;;
52786;SDS011;38661;53.152;5.846;2023-04-25T02:54:39;10.57;;;2.13;;
52786;SDS011;38661;53.152;5.846;2023-04-25T02:57:05;11.68;;;2.28;;
52786;SDS011;38661;53.152;5.846;2023-04-25T02:59:31;10.52;;;2.35;;
52786;SDS011;38661;53.152;5.846;2023-04-25T03:01:57;7.90;;;2.70;;
52786;SDS011;38661;53.152;5.846;2023-04-25T03:04:23;15.43;;;2.85;;
52786;SDS011;38661;53.152;5.846;2023-04-25T03:06:49;13.23;;;2.22;;
52786;SDS011;38661;53.152;5.846;2023-04-25T03:09:16;11.05;;;2.70;;
52786;SDS011;38661;53.152;5.846;2023-04-25T03:11:42;11.80;;;2.33;;
52786;SDS011;38661;53.152;5.846;2023-04-25T03:14:09;9.48;;;2.00;;
52786;SDS011;38661;53.152;5.846;2023-04-25T03:16:35;8.93;;;2.33;;
52786;SDS011;38661;53.152;5.846;2023-04-25T03:19:00;12.90;;;2.78;;
52786;SDS011;38661;53.152;5.846;2023-04-25T03:21:26;9.52;;;2.10;;
52786;SDS011;38661;53.152;5.846;2023-04-25T03:23:52;8.00;;;1.95;;
52786;SDS011;38661;53.152;5.846;2023-04-25T03:26:18;11.48;;;2.20;;
52786;SDS011;38661;53.152;5.846;2023-04-25T03:28:43;8.40;;;1.85;;
52786;SDS011;38661;53.152;5.846;2023-04-25T03:31:09;10.05;;;2.25;;
52786;SDS011;38661;53.152;5.846;2023-04-25T03:33:35;7.78;;;1.98;;
52786;SDS011;38661;53.152;5.846;2023-04-25T03:36:01;11.32;;;1.90;;
52786;SDS011;38661;53.152;5.846;2023-04-25T03:38:27;8.32;;;2.22;;
52786;SDS011;38661;53.152;5.846;2023-04-25T03:40:53;8.60;;;1.92;;
52786;SDS011;38661;53.152;5.846;2023-04-25T03:43:19;7.53;;;1.88;;
52786;SDS011;38661;53.152;5.846;2023-04-25T03:45:45;12.88;;;3.45;;
52786;SDS011;38661;53.152;5.846;2023-04-25T03:48:11;10.68;;;2.15;;
52786;SDS011;38661;53.152;5.846;2023-04-25T03:50:36;8.75;;;1.90;;
52786;SDS011;38661;53.152;5.846;2023-04-25T03:53:02;7.32;;;1.80;;
52786;SDS011;38661;53.152;5.846;2023-04-25T03:55:28;12.35;;;2.22;;
52786;SDS011;38661;53.152;5.846;2023-04-25T03:57:53;9.10;;;1.90;;
52786;SDS011;38661;53.152;5.846;2023-04-25T04:00:19;7.18;;;2.45;;
52786;SDS011;38661;53.152;5.846;2023-04-25T04:02:45;7.90;;;1.75;;
52786;SDS011;38661;53.152;5.846;2023-04-25T04:05:11;5.03;;;1.45;;
52786;SDS011;38661;53.152;5.846;2023-04-25T04:07:36;7.32;;;2.30;;
52786;SDS011;38661;53.152;5.846;2023-04-25T04:10:06;8.90;;;1.75;;
52786;SDS011;38661;53.152;5.846;2023-04-25T04:12:32;7.32;;;2.22;;
52786;SDS011;38661;53.152;5.846;2023-04-25T04:14:58;13.15;;;2.58;;
52786;SDS011;38661;53.152;5.846;2023-04-25T04:17:24;10.50;;;2.22;;
52786;SDS011;38661;53.152;5.846;2023-04-25T04:19:50;9.30;;;1.58;;
52786;SDS011;38661;53.152;5.846;2023-04-25T04:22:16;8.35;;;1.83;;
52786;SDS011;38661;53.152;5.846;2023-04-25T04:24:41;11.30;;;2.22;;
52786;SDS011;38661;53.152;5.846;2023-04-25T04:27:11;8.45;;;2.60;;
52786;SDS011;38661;53.152;5.846;2023-04-25T04:29:37;6.90;;;1.73;;
52786;SDS011;38661;53.152;5.846;2023-04-25T04:32:03;11.48;;;2.22;;
52786;SDS011;38661;53.152;5.846;2023-04-25T04:34:29;7.18;;;2.30;;
52786;SDS011;38661;53.152;5.846;2023-04-25T04:36:56;9.90;;;2.28;;
52786;SDS011;38661;53.152;5.846;2023-04-25T04:39:22;4.88;;;1.08;;
52786;SDS011;38661;53.152;5.846;2023-04-25T04:41:48;5.65;;;1.88;;
52786;SDS011;38661;53.152;5.846;2023-04-25T04:44:13;8.38;;;1.63;;
52786;SDS011;38661;53.152;5.846;2023-04-25T04:46:39;6.55;;;1.83;;
52786;SDS011;38661;53.152;5.846;2023-04-25T04:49:09;7.68;;;2.05;;
52786;SDS011;38661;53.152;5.846;2023-04-25T04:51:37;6.85;;;1.42;;
52786;SDS011;38661;53.152;5.846;2023-04-25T04:54:03;9.70;;;1.98;;
52786;SDS011;38661;53.152;5.846;2023-04-25T04:56:29;9.60;;;1.48;;
52786;SDS011;38661;53.152;5.846;2023-04-25T04:58:59;3.03;;;0.90;;
52786;SDS011;38661;53.152;5.846;2023-04-25T05:01:25;9.02;;;1.30;;
52786;SDS011;38661;53.152;5.846;2023-04-25T05:03:51;5.38;;;1.20;;
52786;SDS011;38661;53.152;5.846;2023-04-25T05:06:18;6.95;;;1.67;;
52786;SDS011;38661;53.152;5.846;2023-04-25T05:08:44;8.68;;;1.70;;
52786;SDS011;38661;53.152;5.846;2023-04-25T05:11:10;7.00;;;1.30;;
52786;SDS011;38661;53.152;5.846;2023-04-25T05:13:36;7.97;;;2.65;;
52786;SDS011;38661;53.152;5.846;2023-04-25T05:16:02;4.15;;;1.30;;
52786;SDS011;38661;53.152;5.846;2023-04-25T05:18:28;4.57;;;1.40;;
52786;SDS011;38661;53.152;5.846;2023-04-25T05:20:54;4.07;;;1.80;;
52786;SDS011;38661;53.152;5.846;2023-04-25T05:23:20;5.28;;;1.80;;
52786;SDS011;38661;53.152;5.846;2023-04-25T05:25:46;8.95;;;1.60;;
52786;SDS011;38661;53.152;5.846;2023-04-25T05:28:12;6.97;;;1.70;;
52786;SDS011;38661;53.152;5.846;2023-04-25T05:30:38;9.60;;;1.88;;
52786;SDS011;38661;53.152;5.846;2023-04-25T05:33:04;7.38;;;1.65;;
52786;SDS011;38661;53.152;5.846;2023-04-25T05:35:30;5.68;;;1.98;;
52786;SDS011;38661;53.152;5.846;2023-04-25T05:37:55;6.53;;;1.60;;
52786;SDS011;38661;53.152;5.846;2023-04-25T05:40:21;9.32;;;1.80;;
52786;SDS011;38661;53.152;5.846;2023-04-25T05:42:47;6.10;;;1.55;;
52786;SDS011;38661;53.152;5.846;2023-04-25T05:45:13;10.63;;;2.00;;
52786;SDS011;38661;53.152;5.846;2023-04-25T05:47:38;8.10;;;2.20;;
52786;SDS011;38661;53.152;5.846;2023-04-25T05:50:04;8.07;;;2.67;;
52786;SDS011;38661;53.152;5.846;2023-04-25T05:52:31;8.25;;;2.47;;
52786;SDS011;38661;53.152;5.846;2023-04-25T05:54:56;9.15;;;2.13;;
52786;SDS011;38661;53.152;5.846;2023-04-25T05:57:25;6.13;;;1.85;;
52786;SDS011;38661;53.152;5.846;2023-04-25T05:59:52;5.90;;;1.42;;
52786;SDS011;38661;53.152;5.846;2023-04-25T06:02:19;6.47;;;1.17;;
52786;SDS011;38661;53.152;5.846;2023-04-25T06:04:46;7.90;;;1.55;;
52786;SDS011;38661;53.152;5.846;2023-04-25T06:07:12;3.63;;;1.13;;
52786;SDS011;38661;53.152;5.846;2023-04-25T06:09:38;7.40;;;1.27;;
52786;SDS011;38661;53.152;5.846;2023-04-25T06:12:06;6.72;;;1.55;;
52786;SDS011;38661;53.152;5.846;2023-04-25T06:14:33;6.05;;;1.20;;
52786;SDS011;38661;53.152;5.846;2023-04-25T06:16:59;6.88;;;1.70;;
52786;SDS011;38661;53.152;5.846;2023-04-25T06:19:31;6.30;;;1.30;;
52786;SDS011;38661;53.152;5.846;2023-04-25T06:21:57;7.07;;;1.60;;
52786;SDS011;38661;53.152;5.846;2023-04-25T06:24:23;6.38;;;2.88;;
52786;SDS011;38661;53.152;5.846;2023-04-25T06:26:49;6.45;;;1.42;;
52786;SDS011;38661;53.152;5.846;2023-04-25T06:29:15;9.23;;;1.70;;
52786;SDS011;38661;53.152;5.846;2023-04-25T06:31:40;9.50;;;1.67;;
52786;SDS011;38661;53.152;5.846;2023-04-25T06:34:06;7.72;;;1.55;;
52786;SDS011;38661;53.152;5.846;2023-04-25T06:36:32;8.20;;;1.23;;
52786;SDS011;38661;53.152;5.846;2023-04-25T06:38:57;8.63;;;1.75;;
52786;SDS011;38661;53.152;5.846;2023-04-25T06:41:23;13.05;;;2.38;;
52786;SDS011;38661;53.152;5.846;2023-04-25T06:43:49;6.32;;;1.52;;
52786;SDS011;38661;53.152;5.846;2023-04-25T06:46:14;9.10;;;1.52;;
52786;SDS011;38661;53.152;5.846;2023-04-25T06:48:40;6.07;;;1.45;;
52786;SDS011;38661;53.152;5.846;2023-04-25T06:51:06;6.10;;;1.70;;
52786;SDS011;38661;53.152;5.846;2023-04-25T06:53:31;8.52;;;1.00;;
52786;SDS011;38661;53.152;5.846;2023-04-25T06:55:57;10.50;;;2.38;;
52786;SDS011;38661;53.152;5.846;2023-04-25T06:58:23;6.35;;;1.50;;
52786;SDS011;38661;53.152;5.846;2023-04-25T07:00:48;11.63;;;2.60;;
52786;SDS011;38661;53.152;5.846;2023-04-25T07:03:14;7.53;;;2.00;;
52786;SDS011;38661;53.152;5.846;2023-04-25T07:05:40;9.65;;;2.08;;
52786;SDS011;38661;53.152;5.846;2023-04-25T07:08:06;8.50;;;1.95;;
52786;SDS011;38661;53.152;5.846;2023-04-25T07:10:31;7.00;;;1.95;;
52786;SDS011;38661;53.152;5.846;2023-04-25T07:12:57;6.65;;;1.30;;
52786;SDS011;38661;53.152;5.846;2023-04-25T07:15:23;6.65;;;1.60;;
52786;SDS011;38661;53.152;5.846;2023-04-25T07:17:48;10.52;;;2.33;;
52786;SDS011;38661;53.152;5.846;2023-04-25T07:20:17;7.97;;;2.33;;
52786;SDS011;38661;53.152;5.846;2023-04-25T07:22:43;7.28;;;2.08;;
52786;SDS011;38661;53.152;5.846;2023-04-25T07:25:09;5.25;;;1.48;;
52786;SDS011;38661;53.152;5.846;2023-04-25T07:27:35;3.95;;;0.93;;
52786;SDS011;38661;53.152;5.846;2023-04-25T07:30:00;2.65;;;1.27;;
52786;SDS011;38661;53.152;5.846;2023-04-25T07:32:30;3.92;;;1.17;;
52786;SDS011;38661;53.152;5.846;2023-04-25T07:34:55;4.25;;;1.10;;
52786;SDS011;38661;53.152;5.846;2023-04-25T07:37:21;6.30;;;1.10;;
52786;SDS011;38661;53.152;5.846;2023-04-25T07:39:47;7.13;;;1.77;;
52786;SDS011;38661;53.152;5.846;2023-04-25T07:42:13;8.20;;;1.55;;
52786;SDS011;38661;53.152;5.846;2023-04-25T07:44:38;7.05;;;1.65;;
52786;SDS011;38661;53.152;5.846;2023-04-25T07:47:08;7.20;;;1.50;;
52786;SDS011;38661;53.152;5.846;2023-04-25T07:49:37;8.55;;;1.65;;
52786;SDS011;38661;53.152;5.846;2023-04-25T07:52:03;12.10;;;2.60;;
52786;SDS011;38661;53.152;5.846;2023-04-25T07:54:33;11.80;;;2.17;;
52786;SDS011;38661;53.152;5.846;2023-04-25T07:56:58;10.57;;;1.80;;
52786;SDS011;38661;53.152;5.846;2023-04-25T07:59:24;6.25;;;1.83;;
52786;SDS011;38661;53.152;5.846;2023-04-25T08:01:50;6.90;;;2.08;;
52786;SDS011;38661;53.152;5.846;2023-04-25T08:04:16;9.93;;;2.45;;
52786;SDS011;38661;53.152;5.846;2023-04-25T08:06:42;4.25;;;1.48;;
52786;SDS011;38661;53.152;5.846;2023-04-25T08:09:08;11.68;;;2.92;;
52786;SDS011;38661;53.152;5.846;2023-04-25T08:11:35;7.50;;;1.88;;
52786;SDS011;38661;53.152;5.846;2023-04-25T08:14:01;6.32;;;1.67;;
52786;SDS011;38661;53.152;5.846;2023-04-25T08:16:27;4.03;;;1.05;;
52786;SDS011;38661;53.152;5.846;2023-04-25T08:18:53;7.38;;;1.90;;
52786;SDS011;38661;53.152;5.846;2023-04-25T08:21:19;6.75;;;1.50;;
52786;SDS011;38661;53.152;5.846;2023-04-25T08:23:45;6.63;;;1.50;;
52786;SDS011;38661;53.152;5.846;2023-04-25T08:26:11;7.45;;;2.38;;
52786;SDS011;38661;53.152;5.846;2023-04-25T08:28:37;6.32;;;1.75;;
52786;SDS011;38661;53.152;5.846;2023-04-25T08:31:02;11.52;;;2.58;;
52786;SDS011;38661;53.152;5.846;2023-04-25T08:33:28;8.63;;;2.08;;
52786;SDS011;38661;53.152;5.846;2023-04-25T08:35:55;10.98;;;1.77;;
52786;SDS011;38661;53.152;5.846;2023-04-25T08:38:21;7.30;;;1.58;;
52786;SDS011;38661;53.152;5.846;2023-04-25T08:40:48;8.85;;;1.58;;
52786;SDS011;38661;53.152;5.846;2023-04-25T08:43:16;7.85;;;1.60;;
52786;SDS011;38661;53.152;5.846;2023-04-25T08:45:44;12.32;;;1.90;;
52786;SDS011;38661;53.152;5.846;2023-04-25T08:48:14;7.05;;;1.58;;
52786;SDS011;38661;53.152;5.846;2023-04-25T08:50:45;8.85;;;2.80;;
52786;SDS011;38661;53.152;5.846;2023-04-25T08:53:16;8.38;;;2.22;;
52786;SDS011;38661;53.152;5.846;2023-04-25T08:55:45;7.88;;;1.40;;
52786;SDS011;38661;53.152;5.846;2023-04-25T08:58:12;10.35;;;2.50;;
52786;SDS011;38661;53.152;5.846;2023-04-25T09:00:38;6.28;;;1.85;;
52786;SDS011;38661;53.152;5.846;2023-04-25T09:03:04;8.40;;;3.22;;
52786;SDS011;38661;53.152;5.846;2023-04-25T09:05:32;6.50;;;1.40;;
52786;SDS011;38661;53.152;5.846;2023-04-25T09:07:58;5.32;;;1.45;;
52786;SDS011;38661;53.152;5.846;2023-04-25T09:10:26;9.32;;;1.65;;
52786;SDS011;38661;53.152;5.846;2023-04-25T09:15:52;10.10;;;2.20;;
52786;SDS011;38661;53.152;5.846;2023-04-25T09:20:55;7.32;;;1.40;;
52786;SDS011;38661;53.152;5.846;2023-04-25T09:23:38;4.75;;;1.40;;
52786;SDS011;38661;53.152;5.846;2023-04-25T09:26:06;4.88;;;1.52;;
52786;SDS011;38661;53.152;5.846;2023-04-25T09:28:32;3.22;;;1.05;;
52786;SDS011;38661;53.152;5.846;2023-04-25T09:31:00;4.90;;;1.35;;
52786;SDS011;38661;53.152;5.846;2023-04-25T09:33:33;5.28;;;1.15;;
52786;SDS011;38661;53.152;5.846;2023-04-25T09:36:03;7.07;;;1.60;;
52786;SDS011;38661;53.152;5.846;2023-04-25T09:38:31;7.00;;;2.10;;
52786;SDS011;38661;53.152;5.846;2023-04-25T09:40:58;5.78;;;1.00;;
52786;SDS011;38661;53.152;5.846;2023-04-25T09:43:25;4.63;;;0.95;;
52786;SDS011;38661;53.152;5.846;2023-04-25T09:45:53;6.03;;;1.15;;
52786;SDS011;38661;53.152;5.846;2023-04-25T09:48:22;3.72;;;1.55;;
52786;SDS011;38661;53.152;5.846;2023-04-25T09:51:05;3.83;;;1.08;;
52786;SDS011;38661;53.152;5.846;2023-04-25T09:53:35;9.02;;;2.10;;
52786;SDS011;38661;53.152;5.846;2023-04-25T09:56:07;6.22;;;1.73;;
52786;SDS011;38661;53.152;5.846;2023-04-25T09:58:35;9.63;;;1.77;;
52786;SDS011;38661;53.152;5.846;2023-04-25T10:01:03;3.55;;;1.13;;
52786;SDS011;38661;53.152;5.846;2023-04-25T10:03:31;7.43;;;1.17;;
52786;SDS011;38661;53.152;5.846;2023-04-25T10:06:02;6.03;;;1.27;;
52786;SDS011;38661;53.152;5.846;2023-04-25T10:08:32;8.90;;;1.60;;
52786;SDS011;38661;53.152;5.846;2023-04-25T10:11:03;10.05;;;1.15;;
52786;SDS011;38661;53.152;5.846;2023-04-25T10:13:32;2.35;;;1.17;;
52786;SDS011;38661;53.152;5.846;2023-04-25T10:15:59;7.35;;;1.35;;
52786;SDS011;38661;53.152;5.846;2023-04-25T10:18:26;6.30;;;1.63;;
52786;SDS011;38661;53.152;5.846;2023-04-25T10:20:53;2.63;;;1.10;;
52786;SDS011;38661;53.152;5.846;2023-04-25T10:23:20;10.93;;;1.85;;
52786;SDS011;38661;53.152;5.846;2023-04-25T10:25:47;6.45;;;1.27;;
52786;SDS011;38661;53.152;5.846;2023-04-25T10:28:13;6.78;;;1.67;;
52786;SDS011;38661;53.152;5.846;2023-04-25T10:30:56;8.00;;;1.90;;
52786;SDS011;38661;53.152;5.846;2023-04-25T10:33:39;5.63;;;1.08;;
52786;SDS011;38661;53.152;5.846;2023-04-25T10:36:14;4.95;;;1.05;;
52786;SDS011;38661;53.152;5.846;2023-04-25T10:38:46;4.10;;;1.38;;
52786;SDS011;38661;53.152;5.846;2023-04-25T10:41:13;9.15;;;1.67;;
52786;SDS011;38661;53.152;5.846;2023-04-25T10:46:19;9.27;;;1.73;;
52786;SDS011;38661;53.152;5.846;2023-04-25T10:48:52;4.85;;;1.27;;
52786;SDS011;38661;53.152;5.846;2023-04-25T10:51:26;7.18;;;1.85;;
52786;SDS011;38661;53.152;5.846;2023-04-25T10:56:30;4.50;;;1.80;;
52786;SDS011;38661;53.152;5.846;2023-04-25T10:59:07;8.43;;;1.55;;
52786;SDS011;38661;53.152;5.846;2023-04-25T11:01:42;4.05;;;1.73;;
52786;SDS011;38661;53.152;5.846;2023-04-25T11:09:32;3.80;;;1.08;;
52786;SDS011;38661;53.152;5.846;2023-04-25T11:11:59;4.40;;;0.85;;
52786;SDS011;38661;53.152;5.846;2023-04-25T11:14:25;3.00;;;0.80;;
52786;SDS011;38661;53.152;5.846;2023-04-25T11:16:58;4.25;;;1.23;;
52786;SDS011;38661;53.152;5.846;2023-04-25T11:19:25;6.20;;;1.67;;
52786;SDS011;38661;53.152;5.846;2023-04-25T11:21:55;6.00;;;1.42;;
52786;SDS011;38661;53.152;5.846;2023-04-25T11:24:40;6.50;;;2.20;;
52786;SDS011;38661;53.152;5.846;2023-04-25T11:27:06;4.45;;;1.63;;
52786;SDS011;38661;53.152;5.846;2023-04-25T11:29:32;6.72;;;1.45;;
52786;SDS011;38661;53.152;5.846;2023-04-25T11:31:59;9.13;;;2.28;;
52786;SDS011;38661;53.152;5.846;2023-04-25T11:34:26;5.70;;;2.13;;
52786;SDS011;38661;53.152;5.846;2023-04-25T11:36:55;5.60;;;1.90;;
52786;SDS011;38661;53.152;5.846;2023-04-25T11:39:21;8.98;;;2.45;;
52786;SDS011;38661;53.152;5.846;2023-04-25T11:41:49;5.35;;;1.50;;
52786;SDS011;38661;53.152;5.846;2023-04-25T11:44:16;4.65;;;1.48;;
52786;SDS011;38661;53.152;5.846;2023-04-25T11:46:43;7.88;;;1.52;;
52786;SDS011;38661;53.152;5.846;2023-04-25T11:49:09;8.50;;;3.53;;
52786;SDS011;38661;53.152;5.846;2023-04-25T11:51:39;9.50;;;1.48;;
52786;SDS011;38661;53.152;5.846;2023-04-25T11:54:05;7.53;;;1.80;;
52786;SDS011;38661;53.152;5.846;2023-04-25T11:56:31;8.40;;;1.60;;
52786;SDS011;38661;53.152;5.846;2023-04-25T11:58:58;6.50;;;1.27;;
52786;SDS011;38661;53.152;5.846;2023-04-25T12:01:37;8.73;;;1.58;;
52786;SDS011;38661;53.152;5.846;2023-04-25T12:04:13;9.88;;;2.30;;
52786;SDS011;38661;53.152;5.846;2023-04-25T12:06:47;6.07;;;2.00;;
52786;SDS011;38661;53.152;5.846;2023-04-25T12:09:14;8.57;;;1.45;;
52786;SDS011;38661;53.152;5.846;2023-04-25T12:11:47;5.53;;;1.00;;
52786;SDS011;38661;53.152;5.846;2023-04-25T12:16:52;7.13;;;1.45;;
52786;SDS011;38661;53.152;5.846;2023-04-25T12:19:20;5.93;;;1.92;;
52786;SDS011;38661;53.152;5.846;2023-04-25T12:21:46;6.95;;;1.75;;
52786;SDS011;38661;53.152;5.846;2023-04-25T12:24:14;7.13;;;1.33;;
52786;SDS011;38661;53.152;5.846;2023-04-25T12:26:45;3.10;;;1.00;;
52786;SDS011;38661;53.152;5.846;2023-04-25T12:29:22;7.50;;;1.10;;
52786;SDS011;38661;53.152;5.846;2023-04-25T12:31:49;4.47;;;0.98;;
52786;SDS011;38661;53.152;5.846;2023-04-25T12:34:17;5.28;;;1.02;;
52786;SDS011;38661;53.152;5.846;2023-04-25T12:36:43;10.15;;;1.77;;
52786;SDS011;38661;53.152;5.846;2023-04-25T12:39:13;6.32;;;2.17;;
52786;SDS011;38661;53.152;5.846;2023-04-25T12:41:50;5.70;;;1.50;;
52786;SDS011;38661;53.152;5.846;2023-04-25T12:44:17;5.93;;;1.60;;
52786;SDS011;38661;53.152;5.846;2023-04-25T12:46:43;4.35;;;1.05;;
52786;SDS011;38661;53.152;5.846;2023-04-25T12:49:08;2.72;;;1.20;;
52786;SDS011;38661;53.152;5.846;2023-04-25T12:51:36;4.22;;;1.20;;
52786;SDS011;38661;53.152;5.846;2023-04-25T12:54:02;5.95;;;1.65;;
52786;SDS011;38661;53.152;5.846;2023-04-25T12:56:30;6.00;;;1.15;;
52786;SDS011;38661;53.152;5.846;2023-04-25T12:58:56;5.90;;;1.58;;
52786;SDS011;38661;53.152;5.846;2023-04-25T13:01:23;6.47;;;1.65;;
52786;SDS011;38661;53.152;5.846;2023-04-25T13:03:49;8.48;;;1.77;;
52786;SDS011;38661;53.152;5.846;2023-04-25T13:06:15;5.30;;;1.40;;
52786;SDS011;38661;53.152;5.846;2023-04-25T13:08:42;9.32;;;3.03;;
52786;SDS011;38661;53.152;5.846;2023-04-25T13:11:08;9.25;;;2.20;;
52786;SDS011;38661;53.152;5.846;2023-04-25T13:13:34;8.10;;;1.80;;
52786;SDS011;38661;53.152;5.846;2023-04-25T13:16:03;9.57;;;1.70;;
52786;SDS011;38661;53.152;5.846;2023-04-25T13:18:30;6.53;;;1.65;;
52786;SDS011;38661;53.152;5.846;2023-04-25T13:20:56;9.18;;;2.30;;
52786;SDS011;38661;53.152;5.846;2023-04-25T13:23:24;7.93;;;1.65;;
52786;SDS011;38661;53.152;5.846;2023-04-25T13:25:51;8.40;;;2.58;;
52786;SDS011;38661;53.152;5.846;2023-04-25T13:28:17;7.10;;;1.50;;
52786;SDS011;38661;53.152;5.846;2023-04-25T13:30:43;5.72;;;0.98;;
52786;SDS011;38661;53.152;5.846;2023-04-25T13:33:09;7.30;;;1.05;;
52786;SDS011;38661;53.152;5.846;2023-04-25T13:35:35;6.25;;;1.55;;
52786;SDS011;38661;53.152;5.846;2023-04-25T13:38:02;6.07;;;1.40;;
52786;SDS011;38661;53.152;5.846;2023-04-25T13:40:29;3.95;;;1.40;;
52786;SDS011;38661;53.152;5.846;2023-04-25T13:42:55;8.30;;;1.70;;
52786;SDS011;38661;53.152;5.846;2023-04-25T13:45:21;4.97;;;1.40;;
52786;SDS011;38661;53.152;5.846;2023-04-25T13:47:47;5.38;;;1.40;;
52786;SDS011;38661;53.152;5.846;2023-04-25T13:50:13;5.40;;;1.40;;
52786;SDS011;38661;53.152;5.846;2023-04-25T13:52:40;6.93;;;1.40;;
52786;SDS011;38661;53.152;5.846;2023-04-25T13:55:07;4.68;;;0.77;;
52786;SDS011;38661;53.152;5.846;2023-04-25T13:57:33;8.10;;;1.95;;
52786;SDS011;38661;53.152;5.846;2023-04-25T14:00:00;5.00;;;1.38;;
52786;SDS011;38661;53.152;5.846;2023-04-25T14:02:31;4.53;;;1.42;;
52786;SDS011;38661;53.152;5.846;2023-04-25T14:04:56;3.97;;;1.05;;
52786;SDS011;38661;53.152;5.846;2023-04-25T14:07:22;4.97;;;1.95;;
52786;SDS011;38661;53.152;5.846;2023-04-25T14:09:48;5.78;;;1.40;;
52786;SDS011;38661;53.152;5.846;2023-04-25T14:12:13;6.88;;;1.30;;
52786;SDS011;38661;53.152;5.846;2023-04-25T14:14:40;8.40;;;1.88;;
52786;SDS011;38661;53.152;5.846;2023-04-25T14:17:06;9.38;;;1.90;;
52786;SDS011;38661;53.152;5.846;2023-04-25T14:19:33;5.90;;;1.63;;
52786;SDS011;38661;53.152;5.846;2023-04-25T14:21:58;8.32;;;1.83;;
52786;SDS011;38661;53.152;5.846;2023-04-25T14:24:24;8.32;;;1.98;;
52786;SDS011;38661;53.152;5.846;2023-04-25T14:26:50;7.43;;;1.80;;
52786;SDS011;38661;53.152;5.846;2023-04-25T14:29:16;9.82;;;2.30;;
52786;SDS011;38661;53.152;5.846;2023-04-25T14:31:41;6.47;;;2.45;;
52786;SDS011;38661;53.152;5.846;2023-04-25T14:34:07;6.55;;;1.90;;
52786;SDS011;38661;53.152;5.846;2023-04-25T14:36:33;7.63;;;1.88;;
52786;SDS011;38661;53.152;5.846;2023-04-25T14:38:59;6.78;;;2.33;;
52786;SDS011;38661;53.152;5.846;2023-04-25T14:41:25;7.05;;;2.33;;
52786;SDS011;38661;53.152;5.846;2023-04-25T14:43:51;4.97;;;1.55;;
52786;SDS011;38661;53.152;5.846;2023-04-25T14:46:21;6.78;;;1.92;;
52786;SDS011;38661;53.152;5.846;2023-04-25T14:48:48;8.27;;;1.70;;
52786;SDS011;38661;53.152;5.846;2023-04-25T14:51:16;8.93;;;1.90;;
52786;SDS011;38661;53.152;5.846;2023-04-25T14:53:42;12.27;;;1.92;;
52786;SDS011;38661;53.152;5.846;2023-04-25T14:56:08;5.50;;;1.88;;
52786;SDS011;38661;53.152;5.846;2023-04-25T14:58:34;7.60;;;1.83;;
52786;SDS011;38661;53.152;5.846;2023-04-25T15:01:00;6.20;;;1.65;;
52786;SDS011;38661;53.152;5.846;2023-04-25T15:03:25;5.32;;;1.73;;